createdAt,value
2023-05-08T00:01:50.468Z,11.37
2023-05-08T00:04:17.595Z,11.67
2023-05-08T00:06:44.689Z,11.50
2023-05-08T00:09:11.686Z,10.97
2023-05-08T00:11:38.903Z,12.27
2023-05-08T00:14:06.011Z,11.63
2023-05-08T00:16:34.532Z,11.90
2023-05-08T00:19:01.719Z,11.20
2023-05-08T00:21:28.780Z,11.40
2023-05-08T00:23:55.847Z,11.60
2023-05-08T00:26:23.018Z,11.40
2023-05-08T00:28:50.129Z,10.93
2023-05-08T00:31:17.194Z,11.50
2023-05-08T00:33:45.595Z,11.90
2023-05-08T00:36:12.695Z,12.97
2023-05-08T00:38:39.750Z,12.77
2023-05-08T00:41:06.862Z,12.80
2023-05-08T00:43:33.924Z,12.20
2023-05-08T00:46:01.610Z,12.20
2023-05-08T00:48:29.392Z,12.77
2023-05-08T00:50:58.932Z,12.83
2023-05-08T00:53:26.974Z,11.57
2023-05-08T00:55:54.079Z,11.57
2023-05-08T00:58:21.477Z,12.43
2023-05-08T01:00:49.355Z,12.40
2023-05-08T01:03:16.533Z,11.73
2023-05-08T01:05:44.122Z,11.30
2023-05-08T01:08:12.705Z,12.97
2023-05-08T01:10:45.925Z,11.97
2023-05-08T01:13:19.258Z,11.60
2023-05-08T01:15:50.081Z,12.23
2023-05-08T01:18:20.235Z,11.70
2023-05-08T01:20:52.502Z,12.00
2023-05-08T01:23:39.159Z,12.00
2023-05-08T01:26:12.385Z,11.33
2023-05-08T01:28:48.955Z,11.97
2023-05-08T01:31:23.339Z,11.93
2023-05-08T01:33:54.158Z,11.00
2023-05-08T01:36:24.136Z,11.30
2023-05-08T01:38:54.646Z,11.03
2023-05-08T01:41:26.218Z,12.37
2023-05-08T01:43:56.020Z,11.27
2023-05-08T01:46:27.594Z,11.33
2023-05-08T01:48:59.816Z,11.57
2023-05-08T01:51:29.342Z,12.17
2023-05-08T01:53:56.924Z,11.70
2023-05-08T01:56:25.930Z,11.53
2023-05-08T01:58:54.762Z,11.17
2023-05-08T02:01:23.644Z,11.50
2023-05-08T02:03:51.570Z,11.27
2023-05-08T02:06:21.003Z,11.63
2023-05-08T02:08:48.555Z,10.10
2023-05-08T02:11:16.618Z,10.57
2023-05-08T02:13:44.814Z,10.07
2023-05-08T02:16:12.327Z,9.93
2023-05-08T02:18:40.509Z,9.53
2023-05-08T02:21:07.832Z,11.07
2023-05-08T02:23:36.369Z,9.63
2023-05-08T02:26:04.400Z,10.73
2023-05-08T02:28:32.372Z,9.23
2023-05-08T02:30:59.425Z,9.67
2023-05-08T02:33:27.444Z,9.90
2023-05-08T02:35:56.101Z,10.53
2023-05-08T02:38:24.202Z,10.77
2023-05-08T02:40:54.911Z,10.80
2023-05-08T02:43:22.759Z,10.00
2023-05-08T02:46:04.402Z,10.67
2023-05-08T02:48:34.371Z,10.23
2023-05-08T02:51:05.369Z,9.33
2023-05-08T02:53:34.942Z,10.83
2023-05-08T02:56:08.305Z,9.97
2023-05-08T02:58:37.687Z,9.53
2023-05-08T03:01:06.225Z,9.57
2023-05-08T03:03:36.587Z,9.43
2023-05-08T03:06:04.086Z,8.87
2023-05-08T03:08:33.207Z,10.13
2023-05-08T03:11:03.336Z,10.07
2023-05-08T03:13:32.810Z,9.97
2023-05-08T03:16:01.215Z,10.37
2023-05-08T03:18:32.693Z,11.10
2023-05-08T03:21:00.504Z,10.40
2023-05-08T03:23:28.860Z,9.70
2023-05-08T03:25:57.830Z,10.67
2023-05-08T03:28:25.477Z,10.03
2023-05-08T03:30:56.562Z,11.07
2023-05-08T03:33:24.015Z,11.77
2023-05-08T03:35:51.758Z,11.40
2023-05-08T03:38:19.050Z,11.37
2023-05-08T03:40:46.560Z,11.83
2023-05-08T03:43:14.014Z,11.43
2023-05-08T03:45:41.229Z,11.90
2023-05-08T03:48:10.236Z,13.20
2023-05-08T03:50:38.691Z,12.30
2023-05-08T03:53:08.839Z,12.13
2023-05-08T03:55:36.468Z,12.17
2023-05-08T03:58:08.999Z,13.10
2023-05-08T04:00:42.235Z,11.73
2023-05-08T04:03:16.717Z,12.87
2023-05-08T04:05:47.639Z,11.83
2023-05-08T04:08:17.583Z,12.93
2023-05-08T04:10:46.348Z,13.73
2023-05-08T04:13:14.482Z,15.20
2023-05-08T04:15:49.202Z,16.77
2023-05-08T04:18:19.309Z,13.90
2023-05-08T04:20:47.712Z,14.00
2023-05-08T04:23:17.718Z,13.53
2023-05-08T04:25:46.405Z,13.17
2023-05-08T04:28:14.950Z,15.10
2023-05-08T04:30:42.253Z,15.70
2023-05-08T04:33:09.916Z,14.20
2023-05-08T04:35:38.413Z,15.07
2023-05-08T04:38:05.565Z,15.17
2023-05-08T04:40:32.717Z,16.10
2023-05-08T04:42:59.901Z,15.57
2023-05-08T04:45:27.440Z,15.80
2023-05-08T04:47:54.750Z,15.00
2023-05-08T04:50:22.056Z,15.73
2023-05-08T04:52:50.559Z,14.43
2023-05-08T04:55:17.710Z,16.53
2023-05-08T04:57:45.170Z,15.87
2023-05-08T05:00:13.232Z,14.80
2023-05-08T05:02:42.234Z,14.13
2023-05-08T05:05:09.567Z,14.73
2023-05-08T05:07:36.821Z,16.03
2023-05-08T05:10:05.722Z,13.60
2023-05-08T05:12:33.770Z,15.00
2023-05-08T05:15:01.124Z,14.43
2023-05-08T05:17:31.824Z,14.77
2023-05-08T05:19:59.445Z,14.83
2023-05-08T05:22:26.617Z,14.50
2023-05-08T05:24:53.701Z,14.80
2023-05-08T05:27:22.502Z,13.80
2023-05-08T05:29:49.762Z,13.60
2023-05-08T05:32:17.181Z,13.77
2023-05-08T05:34:44.858Z,14.13
2023-05-08T05:37:11.971Z,15.10
2023-05-08T05:39:39.537Z,13.10
2023-05-08T05:42:06.708Z,13.90
2023-05-08T05:44:35.278Z,14.07
2023-05-08T05:47:02.630Z,12.97
2023-05-08T05:49:29.805Z,14.73
2023-05-08T05:51:56.949Z,14.60
2023-05-08T05:54:24.020Z,13.90
2023-05-08T05:56:51.148Z,13.47
2023-05-08T05:59:18.203Z,13.97
2023-05-08T06:01:46.670Z,12.93
2023-05-08T06:04:13.863Z,12.90
2023-05-08T06:06:41.003Z,13.40
2023-05-08T06:09:08.780Z,13.73
2023-05-08T06:11:35.824Z,13.13
2023-05-08T06:14:02.942Z,13.70
2023-05-08T06:16:30.343Z,13.30
2023-05-08T06:18:58.826Z,12.90
2023-05-08T06:21:25.976Z,12.13
2023-05-08T06:23:53.119Z,12.77
2023-05-08T06:26:21.555Z,12.70
2023-05-08T06:28:50.324Z,11.30
2023-05-08T06:31:17.471Z,11.87
2023-05-08T06:33:44.566Z,11.97
2023-05-08T06:36:13.428Z,10.53
2023-05-08T06:38:40.512Z,11.70
2023-05-08T06:41:07.597Z,10.20
2023-05-08T06:43:34.650Z,10.60
2023-05-08T06:46:01.744Z,10.87
2023-05-08T06:48:28.812Z,10.40
2023-05-08T06:50:55.907Z,10.80
2023-05-08T06:53:24.293Z,10.60
2023-05-08T06:55:51.960Z,10.97
2023-05-08T06:58:19.085Z,9.57
2023-05-08T07:00:46.107Z,10.23
2023-05-08T07:03:13.222Z,11.77
2023-05-08T07:05:40.326Z,10.10
2023-05-08T07:08:07.337Z,11.47
2023-05-08T07:10:35.699Z,11.03
2023-05-08T07:13:02.865Z,11.43
2023-05-08T07:15:32.115Z,11.00
2023-05-08T07:18:00.165Z,11.23
2023-05-08T07:20:27.436Z,11.20
2023-05-08T07:22:54.544Z,10.93
2023-05-08T07:25:21.599Z,11.03
2023-05-08T07:27:49.997Z,10.70
2023-05-08T07:30:17.142Z,10.60
2023-05-08T07:32:44.298Z,12.53
2023-05-08T07:35:11.625Z,9.40
2023-05-08T07:37:38.824Z,11.17
2023-05-08T07:40:06.433Z,11.37
2023-05-08T07:42:38.537Z,10.30
2023-05-08T07:45:07.589Z,10.53
2023-05-08T07:47:34.721Z,8.83
2023-05-08T07:50:01.836Z,9.70
2023-05-08T07:52:28.883Z,9.47
2023-05-08T07:54:55.950Z,9.60
2023-05-08T07:57:23.025Z,8.23
2023-05-08T07:59:50.114Z,9.00
2023-05-08T08:02:18.537Z,9.17
2023-05-08T08:04:45.982Z,9.40
2023-05-08T08:07:13.035Z,8.47
2023-05-08T08:09:40.047Z,8.80
2023-05-08T08:12:07.221Z,8.70
2023-05-08T08:14:34.254Z,8.97
2023-05-08T08:17:01.467Z,7.60
2023-05-08T08:19:29.965Z,8.13
2023-05-08T08:21:57.016Z,8.00
2023-05-08T08:24:24.149Z,8.27
2023-05-08T08:26:51.257Z,7.97
2023-05-08T08:29:18.299Z,9.50
2023-05-08T08:31:45.311Z,11.13
2023-05-08T08:34:12.401Z,7.60
2023-05-08T08:36:40.879Z,8.43
2023-05-08T08:39:09.733Z,7.13
2023-05-08T08:41:39.972Z,8.17
2023-05-08T08:44:07.120Z,7.67
2023-05-08T08:46:34.493Z,7.10
2023-05-08T08:49:03.783Z,7.50
2023-05-08T08:51:32.608Z,6.60
2023-05-08T08:54:03.976Z,6.77
2023-05-08T08:56:31.416Z,7.43
2023-05-08T08:58:58.991Z,7.67
2023-05-08T09:01:26.634Z,6.20
2023-05-08T09:03:53.945Z,6.60
2023-05-08T09:06:21.112Z,5.90
2023-05-08T09:08:48.408Z,5.70
2023-05-08T09:11:16.807Z,6.93
2023-05-08T09:13:43.896Z,6.33
2023-05-08T09:16:11.042Z,6.50
2023-05-08T09:18:38.156Z,5.93
2023-05-08T09:21:06.729Z,5.80
2023-05-08T09:23:36.005Z,6.73
2023-05-08T09:26:03.291Z,7.47
2023-05-08T09:28:31.657Z,5.97
2023-05-08T09:30:59.439Z,6.00
2023-05-08T09:33:28.133Z,9.83
2023-05-08T09:35:55.649Z,7.70
2023-05-08T09:38:35.627Z,7.30
2023-05-08T09:41:09.383Z,6.30
2023-05-08T09:43:38.136Z,5.90
2023-05-08T09:46:21.075Z,5.23
2023-05-08T09:48:48.203Z,6.33
2023-05-08T09:51:15.474Z,6.30
2023-05-08T09:53:42.622Z,6.60
2023-05-08T09:56:09.849Z,6.53
2023-05-08T09:58:41.303Z,6.80
2023-05-08T10:01:08.461Z,6.40
2023-05-08T10:03:47.686Z,5.87
2023-05-08T10:06:15.087Z,4.70
2023-05-08T10:08:42.600Z,5.87
2023-05-08T10:11:16.196Z,5.90
2023-05-08T10:13:44.788Z,5.80
2023-05-08T10:16:14.546Z,6.73
2023-05-08T10:18:42.859Z,5.90
2023-05-08T10:21:10.031Z,6.13
2023-05-08T10:23:38.349Z,5.60
2023-05-08T10:26:08.655Z,5.80
2023-05-08T10:28:40.730Z,4.93
2023-05-08T10:31:10.117Z,6.47
2023-05-08T10:33:39.868Z,4.90
2023-05-08T10:36:07.500Z,4.57
2023-05-08T10:38:34.808Z,4.90
2023-05-08T10:41:02.192Z,4.57
2023-05-08T10:43:30.471Z,5.03
2023-05-08T10:45:58.445Z,4.23
2023-05-08T10:48:31.228Z,4.67
2023-05-08T10:51:01.534Z,4.50
2023-05-08T10:53:32.050Z,6.00
2023-05-08T10:55:59.735Z,3.40
2023-05-08T10:58:30.966Z,3.67
2023-05-08T11:01:13.953Z,4.17
2023-05-08T11:03:43.367Z,6.87
2023-05-08T11:06:10.990Z,4.83
2023-05-08T11:08:46.000Z,5.20
2023-05-08T11:11:17.839Z,4.97
2023-05-08T11:13:47.641Z,5.10
2023-05-08T11:16:14.851Z,3.90
2023-05-08T11:18:56.902Z,4.90
2023-05-08T11:21:25.356Z,4.00
2023-05-08T11:23:57.338Z,3.77
2023-05-08T11:26:38.470Z,4.43
2023-05-08T11:29:16.204Z,3.90
2023-05-08T11:31:53.357Z,4.20
2023-05-08T11:34:38.975Z,4.70
2023-05-08T11:37:10.658Z,4.77
2023-05-08T11:39:37.792Z,4.40
2023-05-08T11:42:23.723Z,3.67
2023-05-08T11:44:58.779Z,4.40
2023-05-08T11:47:31.122Z,5.53
2023-05-08T11:49:58.243Z,4.13
2023-05-08T11:52:27.014Z,6.20
2023-05-08T11:54:54.378Z,5.70
2023-05-08T11:57:21.624Z,4.90
2023-05-08T11:59:50.179Z,5.00
2023-05-08T12:02:17.199Z,4.83
2023-05-08T12:04:45.380Z,5.27
2023-05-08T12:07:12.526Z,5.00
2023-05-08T12:09:41.014Z,4.30
2023-05-08T12:12:08.096Z,5.07
2023-05-08T12:14:35.247Z,5.70
2023-05-08T12:17:02.742Z,5.30
2023-05-08T12:19:29.918Z,4.70
2023-05-08T12:21:57.490Z,3.30
2023-05-08T12:24:25.412Z,3.67
2023-05-08T12:26:55.412Z,3.47
2023-05-08T12:29:24.363Z,3.70
2023-05-08T12:31:52.462Z,4.23
2023-05-08T12:34:20.177Z,5.50
2023-05-08T12:36:47.299Z,4.00
2023-05-08T12:39:15.077Z,4.13
2023-05-08T12:41:42.618Z,4.57
2023-05-08T12:44:18.309Z,4.90
2023-05-08T12:46:50.130Z,4.50
2023-05-08T12:49:24.266Z,4.10
2023-05-08T12:51:51.351Z,4.30
2023-05-08T12:54:18.399Z,4.50
2023-05-08T12:56:45.527Z,4.00
2023-05-08T12:59:12.624Z,4.40
2023-05-08T13:01:41.097Z,3.70
2023-05-08T13:04:08.490Z,3.53
2023-05-08T13:06:35.825Z,4.20
2023-05-08T13:09:02.892Z,6.37
2023-05-08T13:11:30.614Z,3.23
2023-05-08T13:13:57.689Z,4.20
2023-05-08T13:16:24.825Z,4.00
2023-05-08T13:18:53.209Z,4.80
2023-05-08T13:21:20.262Z,4.70
2023-05-08T13:23:47.312Z,4.33
2023-05-08T13:26:14.354Z,4.20
2023-05-08T13:28:41.368Z,3.93
2023-05-08T13:31:08.504Z,4.40
2023-05-08T13:33:35.555Z,5.20
2023-05-08T13:36:04.148Z,4.60
2023-05-08T13:38:31.184Z,4.13
2023-05-08T13:40:58.247Z,4.33
2023-05-08T13:43:25.347Z,3.70
2023-05-08T13:45:52.485Z,6.20
2023-05-08T13:48:19.591Z,5.60
2023-05-08T13:50:46.596Z,3.83
2023-05-08T13:53:14.976Z,4.23
2023-05-08T13:55:42.056Z,3.50
2023-05-08T13:58:09.107Z,4.13
2023-05-08T14:00:36.159Z,4.20
2023-05-08T14:03:03.507Z,4.40
2023-05-08T14:05:30.701Z,2.70
2023-05-08T14:07:57.800Z,4.40
2023-05-08T14:10:26.208Z,3.50
2023-05-08T14:12:53.324Z,2.87
2023-05-08T14:15:20.792Z,2.43
2023-05-08T14:17:48.580Z,2.10
2023-05-08T14:20:15.727Z,2.17
2023-05-08T14:22:42.818Z,2.50
2023-05-08T14:25:10.221Z,2.40
2023-05-08T14:27:38.610Z,2.50
2023-05-08T14:30:06.490Z,2.55
2023-05-08T14:32:33.668Z,2.33
2023-05-08T14:35:00.895Z,2.72
2023-05-08T14:37:27.927Z,2.90
2023-05-08T14:39:55.018Z,2.63
2023-05-08T14:42:23.721Z,2.83
2023-05-08T14:44:52.411Z,3.40
2023-05-08T14:47:19.490Z,3.58
2023-05-08T14:49:46.575Z,3.70
2023-05-08T14:52:13.622Z,3.83
2023-05-08T14:54:40.945Z,3.80
2023-05-08T14:57:08.163Z,4.20
2023-05-08T14:59:35.210Z,4.30
2023-05-08T15:02:03.614Z,4.00
2023-05-08T15:04:30.744Z,4.47
2023-05-08T15:06:57.884Z,4.80
2023-05-08T15:09:24.980Z,4.82
2023-05-08T15:11:52.142Z,4.97
2023-05-08T15:14:19.268Z,5.93
2023-05-08T15:16:46.333Z,5.85
2023-05-08T15:19:14.794Z,5.72
2023-05-08T15:21:41.857Z,6.82
2023-05-08T15:24:09.356Z,6.70
2023-05-08T15:26:36.431Z,5.07
2023-05-08T15:29:03.598Z,7.25
2023-05-08T15:31:30.727Z,6.03
2023-05-08T15:33:57.765Z,6.40
2023-05-08T15:36:28.226Z,6.15
2023-05-08T15:38:55.509Z,6.65
2023-05-08T15:41:22.598Z,7.93
2023-05-08T15:43:50.095Z,6.90
2023-05-08T15:46:17.223Z,6.15
2023-05-08T15:48:44.334Z,6.75
2023-05-08T15:51:11.369Z,8.55
2023-05-08T15:53:39.771Z,7.55
2023-05-08T15:56:06.944Z,7.32
2023-05-08T15:58:34.004Z,7.75
2023-05-08T16:01:01.168Z,7.38
2023-05-08T16:03:28.436Z,8.00
2023-05-08T16:05:56.721Z,7.95
2023-05-08T16:08:23.767Z,7.43
2023-05-08T16:10:54.624Z,6.63
2023-05-08T16:13:21.762Z,8.03
2023-05-08T16:15:48.903Z,8.35
2023-05-08T16:18:16.015Z,7.93
2023-05-08T16:20:43.128Z,7.17
2023-05-08T16:23:10.246Z,12.20
2023-05-08T16:25:37.296Z,7.60
2023-05-08T16:28:05.645Z,7.40
2023-05-08T16:30:32.692Z,7.47
2023-05-08T16:32:59.863Z,7.20
2023-05-08T16:35:26.939Z,7.90
2023-05-08T16:37:54.015Z,8.17
2023-05-08T16:40:21.221Z,8.93
2023-05-08T16:42:48.317Z,8.87
2023-05-08T16:45:16.963Z,8.23
2023-05-08T16:47:44.097Z,6.87
2023-05-08T16:50:11.537Z,8.60
2023-05-08T16:52:38.632Z,7.80
2023-05-08T16:55:06.109Z,7.87
2023-05-08T16:57:33.151Z,8.20
2023-05-08T17:00:00.212Z,7.17
2023-05-08T17:02:28.702Z,7.80
2023-05-08T17:04:55.788Z,7.87
2023-05-08T17:07:22.822Z,8.20
2023-05-08T17:09:49.942Z,7.17
2023-05-08T17:12:17.014Z,7.17
2023-05-08T17:14:44.026Z,7.40
2023-05-08T17:17:11.089Z,7.30
2023-05-08T17:19:39.504Z,7.17
2023-05-08T17:22:06.570Z,7.00
2023-05-08T17:24:33.639Z,7.23
2023-05-08T17:27:00.705Z,7.50
2023-05-08T17:29:27.836Z,6.97
2023-05-08T17:31:55.026Z,7.60
2023-05-08T17:34:22.225Z,7.33
2023-05-08T17:36:51.027Z,6.83
2023-05-08T17:39:18.178Z,6.03
2023-05-08T17:41:45.228Z,6.73
2023-05-08T17:44:12.281Z,6.70
2023-05-08T17:46:39.345Z,6.87
2023-05-08T17:49:06.399Z,7.60
2023-05-08T17:51:33.410Z,6.60
2023-05-08T17:54:01.781Z,6.77
2023-05-08T17:56:30.530Z,6.30
2023-05-08T17:58:58.795Z,7.07
2023-05-08T18:01:25.962Z,6.90
2023-05-08T18:03:53.240Z,6.13
2023-05-08T18:06:20.347Z,7.40
2023-05-08T18:08:47.749Z,6.83
2023-05-08T18:11:19.916Z,7.10
2023-05-08T18:13:47.186Z,6.87
2023-05-08T18:16:14.688Z,5.97
2023-05-08T18:18:41.778Z,5.67
2023-05-08T18:21:09.040Z,6.03
2023-05-08T18:23:36.195Z,6.07
2023-05-08T18:26:03.320Z,5.70
2023-05-08T18:28:31.767Z,5.90
2023-05-08T18:30:58.840Z,6.10
2023-05-08T18:33:25.964Z,6.50
2023-05-08T18:35:53.070Z,6.67
2023-05-08T18:38:20.145Z,5.83
2023-05-08T18:40:47.248Z,5.67
2023-05-08T18:43:14.301Z,5.93
2023-05-08T18:45:42.669Z,5.90
2023-05-08T18:48:09.933Z,5.83
2023-05-08T18:50:37.355Z,6.07
2023-05-08T18:53:04.514Z,6.20
2023-05-08T18:55:31.552Z,6.07
2023-05-08T18:57:58.627Z,6.73
2023-05-08T19:00:25.815Z,6.73
2023-05-08T19:02:54.398Z,7.00
2023-05-08T19:05:21.622Z,5.80
2023-05-08T19:07:48.630Z,6.77
2023-05-08T19:10:15.835Z,6.77
2023-05-08T19:12:43.148Z,6.83
2023-05-08T19:15:10.649Z,7.10
2023-05-08T19:17:37.837Z,6.50
2023-05-08T19:20:06.981Z,6.60
2023-05-08T19:22:35.862Z,6.90
2023-05-08T19:25:03.318Z,6.80
2023-05-08T19:27:30.418Z,6.60
2023-05-08T19:29:57.461Z,7.50
2023-05-08T19:32:24.543Z,6.10
2023-05-08T19:34:51.613Z,7.30
2023-05-08T19:37:20.017Z,6.97
2023-05-08T19:39:47.051Z,7.00
2023-05-08T19:42:14.117Z,7.63
2023-05-08T19:44:41.207Z,6.93
2023-05-08T19:47:08.487Z,7.93
2023-05-08T19:49:35.534Z,7.17
2023-05-08T19:52:02.603Z,7.10
2023-05-08T19:54:30.953Z,6.90
2023-05-08T19:56:58.045Z,7.80
2023-05-08T19:59:25.092Z,7.20
2023-05-08T20:01:52.184Z,7.07
2023-05-08T20:04:19.247Z,6.90
2023-05-08T20:06:46.278Z,7.50
2023-05-08T20:09:13.321Z,7.07
2023-05-08T20:11:41.864Z,7.97
2023-05-08T20:14:08.908Z,7.60
2023-05-08T20:16:36.099Z,8.43
2023-05-08T20:19:03.298Z,8.23
2023-05-08T20:21:30.355Z,8.30
2023-05-08T20:23:57.372Z,7.53
2023-05-08T20:26:24.487Z,8.40
2023-05-08T20:28:52.862Z,7.53
2023-05-08T20:31:20.007Z,8.23
2023-05-08T20:33:47.083Z,7.80
2023-05-08T20:36:14.196Z,8.57
2023-05-08T20:38:41.237Z,7.43
2023-05-08T20:41:08.282Z,7.40
2023-05-08T20:43:35.280Z,9.17
2023-05-08T20:46:03.687Z,7.93
2023-05-08T20:48:31.274Z,7.30
2023-05-08T20:50:58.351Z,7.43
2023-05-08T20:53:25.599Z,8.50
2023-05-08T20:55:59.753Z,7.43
2023-05-08T20:58:26.770Z,7.97
2023-05-08T21:00:53.825Z,9.93
2023-05-08T21:03:22.293Z,8.23
2023-05-08T21:05:49.385Z,8.30
2023-05-08T21:08:16.558Z,9.00
2023-05-08T21:10:43.640Z,8.00
2023-05-08T21:13:10.780Z,8.67
2023-05-08T21:15:37.898Z,9.40
2023-05-08T21:18:05.118Z,9.50
2023-05-08T21:20:34.019Z,8.90
2023-05-08T21:23:01.058Z,8.77
2023-05-08T21:25:28.146Z,9.00
2023-05-08T21:27:55.578Z,8.80
2023-05-08T21:30:22.684Z,9.10
2023-05-08T21:32:49.856Z,9.53
2023-05-08T21:35:17.245Z,9.40
2023-05-08T21:37:45.933Z,9.00
2023-05-08T21:40:13.092Z,10.37
2023-05-08T21:42:40.173Z,10.10
2023-05-08T21:45:07.483Z,8.20
2023-05-08T21:47:34.637Z,9.57
2023-05-08T21:50:01.689Z,8.97
2023-05-08T21:52:28.802Z,9.60
2023-05-08T21:54:57.209Z,9.50
2023-05-08T21:57:24.224Z,10.57
2023-05-08T21:59:51.229Z,10.77
2023-05-08T22:02:18.381Z,9.77
2023-05-08T22:04:45.438Z,14.00
2023-05-08T22:07:12.502Z,10.03
2023-05-08T22:09:39.597Z,10.40
2023-05-08T22:12:08.386Z,10.97
2023-05-08T22:14:35.408Z,10.30
2023-05-08T22:17:02.464Z,10.40
2023-05-08T22:19:29.497Z,9.90
2023-05-08T22:21:56.602Z,11.07
2023-05-08T22:24:23.783Z,14.03
2023-05-08T22:26:50.825Z,12.37
2023-05-08T22:29:19.235Z,13.00
2023-05-08T22:31:46.373Z,12.00
2023-05-08T22:34:13.728Z,12.67
2023-05-08T22:36:40.789Z,12.03
2023-05-08T22:39:08.361Z,14.53
2023-05-08T22:41:35.495Z,11.87
2023-05-08T22:44:02.727Z,12.57
2023-05-08T22:46:32.623Z,11.40
2023-05-08T22:49:00.007Z,10.30
2023-05-08T22:51:27.160Z,10.77
2023-05-08T22:53:55.031Z,11.67
2023-05-08T22:56:22.071Z,9.90
2023-05-08T22:58:49.214Z,14.37
2023-05-08T23:01:16.313Z,11.60
2023-05-08T23:03:44.754Z,10.67
2023-05-08T23:06:11.884Z,10.90
2023-05-08T23:08:38.933Z,14.37
2023-05-08T23:11:06.029Z,12.57
2023-05-08T23:13:33.049Z,12.07
2023-05-08T23:16:00.052Z,10.70
2023-05-08T23:18:27.093Z,12.00
2023-05-08T23:20:55.443Z,13.80
2023-05-08T23:23:22.481Z,11.63
2023-05-08T23:25:49.506Z,11.77
2023-05-08T23:28:16.521Z,10.90
2023-05-08T23:30:43.565Z,12.47
2023-05-08T23:33:10.592Z,12.00
2023-05-08T23:35:37.682Z,11.73
2023-05-08T23:38:06.085Z,12.33
2023-05-08T23:40:33.115Z,12.43
2023-05-08T23:43:00.170Z,11.53
2023-05-08T23:45:27.654Z,11.80
2023-05-08T23:47:54.826Z,13.47
2023-05-08T23:50:21.891Z,13.40
2023-05-08T23:52:48.995Z,10.80
2023-05-08T23:55:17.526Z,11.60
2023-05-08T23:57:44.594Z,16.40
